createdAt,value
2022-08-26T00:01:49.418Z,32.60
2022-08-26T00:06:07.477Z,33.67
2022-08-26T00:14:43.122Z,35.63
2022-08-26T00:19:02.718Z,40.35
2022-08-26T00:23:20.371Z,36.93
2022-08-26T00:27:41.560Z,31.55
2022-08-26T00:32:02.757Z,39.83
2022-08-26T00:36:21.402Z,34.25
2022-08-26T00:40:45.635Z,37.53
2022-08-26T00:45:03.527Z,34.08
2022-08-26T00:49:38.602Z,35.05
2022-08-26T00:53:59.132Z,38.83
2022-08-26T00:58:18.235Z,40.13
2022-08-26T01:02:35.749Z,42.17
2022-08-26T01:06:54.962Z,38.25
2022-08-26T01:11:12.844Z,32.88
2022-08-26T01:15:34.227Z,37.03
2022-08-26T01:19:59.569Z,31.92
2022-08-26T01:24:18.945Z,34.25
2022-08-26T01:28:38.177Z,41.80
2022-08-26T01:32:57.826Z,47.38
2022-08-26T01:37:27.554Z,45.28
2022-08-26T01:41:45.523Z,37.10
2022-08-26T01:46:03.278Z,32.75
2022-08-26T01:50:30.674Z,38.13
2022-08-26T01:54:50.580Z,34.22
2022-08-26T01:59:13.534Z,42.30
2022-08-26T02:03:31.198Z,41.35
2022-08-26T02:07:50.763Z,49.28
2022-08-26T02:12:10.370Z,46.08
2022-08-26T02:16:31.435Z,42.10
2022-08-26T02:20:51.548Z,41.88
2022-08-26T02:25:24.925Z,52.53
2022-08-26T02:29:45.553Z,40.72
2022-08-26T02:34:15.403Z,40.70
2022-08-26T02:38:32.660Z,44.35
2022-08-26T02:42:53.126Z,39.42
2022-08-26T02:47:14.058Z,46.88
2022-08-26T02:51:31.639Z,42.88
2022-08-26T02:55:50.644Z,36.08
2022-08-26T03:00:10.862Z,52.03
2022-08-26T03:04:28.585Z,53.40
2022-08-26T03:08:50.755Z,45.60
2022-08-26T03:13:08.944Z,40.92
2022-08-26T03:17:26.827Z,48.78
2022-08-26T03:21:44.370Z,48.35
2022-08-26T03:26:05.527Z,47.88
2022-08-26T03:30:44.824Z,49.70
2022-08-26T03:39:19.896Z,44.63
2022-08-26T03:43:37.220Z,53.45
2022-08-26T03:47:54.738Z,48.92
2022-08-26T03:52:15.019Z,46.45
2022-08-26T03:56:33.420Z,39.65
2022-08-26T04:00:55.452Z,44.60
2022-08-26T04:05:16.588Z,45.13
2022-08-26T04:09:35.241Z,45.55
2022-08-26T04:13:52.676Z,37.80
2022-08-26T04:18:10.657Z,42.47
2022-08-26T04:22:27.885Z,38.30
2022-08-26T04:26:46.581Z,39.65
2022-08-26T04:31:04.081Z,45.17
2022-08-26T04:35:25.769Z,50.25
2022-08-26T04:39:43.457Z,60.67
2022-08-26T04:44:03.337Z,42.53
2022-08-26T04:48:20.606Z,42.00
2022-08-26T04:52:38.371Z,42.38
2022-08-26T04:56:55.779Z,43.60
2022-08-26T05:01:13.609Z,42.28
2022-08-26T05:05:32.009Z,40.17
2022-08-26T05:09:49.345Z,36.60
2022-08-26T05:14:07.393Z,34.40
2022-08-26T05:18:25.850Z,39.33
2022-08-26T05:22:43.253Z,36.67
2022-08-26T05:27:00.428Z,36.42
2022-08-26T05:31:20.547Z,45.05
2022-08-26T05:35:39.028Z,36.65
2022-08-26T05:39:56.733Z,42.45
2022-08-26T05:44:16.343Z,44.83
2022-08-26T05:48:33.894Z,44.35
2022-08-26T05:52:51.474Z,43.10
2022-08-26T05:57:08.665Z,37.15
2022-08-26T06:01:27.834Z,39.95
2022-08-26T06:05:45.050Z,36.65
2022-08-26T06:10:28.603Z,44.78
2022-08-26T06:14:39.840Z,41.30
2022-08-26T06:18:57.615Z,36.50
2022-08-26T06:23:35.514Z,32.63
2022-08-26T06:27:52.797Z,34.33
2022-08-26T06:32:10.034Z,35.47
2022-08-26T06:36:30.604Z,28.80
2022-08-26T06:40:50.509Z,31.05
2022-08-26T06:45:08.342Z,34.72
2022-08-26T06:49:26.542Z,36.70
2022-08-26T06:53:47.366Z,30.65
2022-08-26T06:58:06.330Z,28.25
2022-08-26T07:02:23.548Z,25.17
2022-08-26T07:06:50.260Z,29.45
2022-08-26T07:11:11.273Z,33.60
2022-08-26T07:15:31.208Z,35.90
2022-08-26T07:19:49.045Z,32.08
2022-08-26T07:24:06.516Z,26.65
2022-08-26T07:28:23.813Z,31.77
2022-08-26T07:32:42.907Z,24.90
2022-08-26T07:37:00.497Z,30.63
2022-08-26T07:41:21.415Z,31.90
2022-08-26T07:45:38.787Z,27.75
2022-08-26T07:49:57.335Z,34.40
2022-08-26T07:54:14.549Z,25.52
2022-08-26T07:58:31.903Z,26.13
2022-08-26T08:02:49.744Z,28.17
2022-08-26T08:07:11.407Z,26.50
2022-08-26T08:11:31.035Z,23.92
2022-08-26T08:15:48.222Z,25.45
2022-08-26T08:20:08.740Z,22.75
2022-08-26T08:24:25.945Z,22.27
2022-08-26T08:28:43.219Z,19.60
2022-08-26T08:33:02.194Z,20.38
2022-08-26T08:41:56.596Z,19.20
2022-08-26T08:46:17.265Z,18.58
2022-08-26T08:50:42.542Z,22.40
2022-08-26T08:55:01.603Z,22.55
2022-08-26T08:59:34.175Z,20.20
2022-08-26T09:04:13.359Z,19.17
2022-08-26T09:08:36.936Z,21.45
2022-08-26T09:12:54.327Z,21.80
2022-08-26T09:17:39.557Z,24.00
2022-08-26T09:22:00.424Z,24.17
2022-08-26T09:26:20.010Z,22.55
2022-08-26T09:30:37.434Z,17.92
2022-08-26T09:35:02.245Z,25.63
2022-08-26T09:39:33.624Z,19.80
2022-08-26T09:44:14.712Z,17.65
2022-08-26T09:48:36.505Z,22.38
2022-08-26T09:53:25.164Z,18.85
2022-08-26T09:57:58.212Z,23.67
2022-08-26T10:02:34.633Z,24.67
2022-08-26T10:06:59.851Z,23.33
2022-08-26T10:11:26.210Z,16.60
2022-08-26T10:15:50.692Z,19.92
2022-08-26T10:20:23.243Z,19.10
2022-08-26T10:24:48.289Z,27.40
2022-08-26T10:29:19.835Z,23.83
2022-08-26T10:33:38.653Z,22.65
2022-08-26T10:38:00.750Z,21.73
2022-08-26T10:42:38.783Z,20.25
2022-08-26T10:47:05.827Z,21.30
2022-08-26T10:51:35.435Z,19.67
2022-08-26T10:56:32.023Z,22.60
2022-08-26T11:01:22.857Z,22.13
2022-08-26T11:05:40.437Z,22.80
2022-08-26T11:09:59.416Z,22.27
2022-08-26T11:14:28.968Z,20.60
2022-08-26T11:18:48.709Z,19.00
2022-08-26T11:23:23.499Z,18.73
2022-08-26T11:27:41.530Z,23.88
2022-08-26T11:31:58.807Z,25.23
2022-08-26T11:36:45.796Z,13.77
2022-08-26T11:41:11.859Z,13.95
2022-08-26T11:45:42.397Z,16.30
2022-08-26T11:50:27.604Z,11.93
2022-08-26T11:55:07.825Z,10.90
2022-08-26T12:03:54.232Z,23.63
2022-08-26T12:08:19.393Z,14.20
2022-08-26T12:12:38.699Z,47.85
2022-08-26T12:17:10.030Z,22.90
2022-08-26T12:21:32.818Z,22.52
2022-08-26T12:25:54.844Z,54.53
2022-08-26T12:30:21.988Z,32.70
2022-08-26T12:34:44.077Z,101.30
2022-08-26T12:39:13.754Z,21.83
2022-08-26T12:43:45.795Z,26.65
2022-08-26T12:48:12.214Z,12.27
2022-08-26T12:52:32.554Z,12.40
2022-08-26T12:56:49.826Z,12.77
2022-08-26T13:01:09.414Z,14.25
2022-08-26T13:05:33.097Z,13.35
2022-08-26T13:09:55.998Z,10.77
2022-08-26T13:14:23.899Z,12.40
2022-08-26T13:18:41.701Z,17.90
2022-08-26T13:22:59.487Z,14.95
2022-08-26T13:27:20.452Z,15.30
2022-08-26T13:31:40.508Z,13.07
2022-08-26T13:35:58.397Z,13.60
2022-08-26T13:40:15.791Z,12.00
2022-08-26T13:44:33.426Z,12.68
2022-08-26T13:48:50.611Z,13.60
2022-08-26T13:53:07.844Z,13.10
2022-08-26T13:57:27.831Z,19.10
2022-08-26T14:01:45.068Z,9.57
2022-08-26T14:06:02.877Z,15.70
2022-08-26T14:10:20.549Z,9.57
2022-08-26T14:14:39.042Z,12.23
2022-08-26T14:18:56.229Z,10.57
2022-08-26T14:23:14.457Z,18.50
2022-08-26T14:27:31.821Z,16.48
2022-08-26T14:31:49.134Z,10.68
2022-08-26T14:36:25.639Z,11.23
2022-08-26T14:40:44.889Z,14.98
2022-08-26T14:45:04.919Z,12.65
2022-08-26T14:49:24.210Z,14.52
2022-08-26T14:54:00.411Z,11.43
2022-08-26T14:58:17.584Z,12.18
2022-08-26T15:02:34.879Z,12.15
2022-08-26T15:06:56.703Z,13.40
2022-08-26T15:11:13.909Z,9.75
2022-08-26T15:15:31.260Z,10.55
2022-08-26T15:19:48.535Z,7.25
2022-08-26T15:24:05.871Z,8.35
2022-08-26T15:28:23.263Z,10.05
2022-08-26T15:32:40.715Z,8.80
2022-08-26T15:36:58.049Z,6.15
2022-08-26T15:41:15.198Z,7.32
2022-08-26T15:45:33.341Z,6.90
2022-08-26T15:49:50.586Z,8.03
2022-08-26T15:54:10.294Z,13.88
2022-08-26T15:58:28.754Z,9.93
2022-08-26T16:02:46.333Z,8.10
2022-08-26T16:07:04.514Z,10.55
2022-08-26T16:11:22.570Z,10.88
2022-08-26T16:15:40.092Z,8.45
2022-08-26T16:19:57.482Z,10.65
2022-08-26T16:24:14.982Z,12.55
2022-08-26T16:28:32.210Z,12.77
2022-08-26T16:32:49.795Z,18.42
2022-08-26T16:37:07.201Z,15.15
2022-08-26T16:41:26.470Z,11.32
2022-08-26T16:45:43.681Z,15.18
2022-08-26T16:50:00.933Z,10.48
2022-08-26T16:54:18.156Z,14.38
2022-08-26T16:58:35.402Z,14.30
2022-08-26T17:02:52.667Z,14.52
2022-08-26T17:07:09.945Z,14.75
2022-08-26T17:11:27.217Z,13.30
2022-08-26T17:15:54.060Z,13.85
2022-08-26T17:20:17.512Z,13.75
2022-08-26T17:24:34.858Z,13.45
2022-08-26T17:28:52.720Z,13.50
2022-08-26T17:33:10.857Z,12.32
2022-08-26T17:37:28.557Z,11.60
2022-08-26T17:41:45.922Z,18.60
2022-08-26T17:46:07.088Z,12.00
2022-08-26T17:50:24.821Z,16.52
2022-08-26T17:54:43.330Z,12.07
2022-08-26T18:03:20.765Z,15.80
2022-08-26T18:07:43.877Z,14.35
2022-08-26T18:12:02.215Z,18.58
2022-08-26T18:16:19.936Z,19.20
2022-08-26T18:20:39.177Z,20.83
2022-08-26T18:24:59.071Z,22.58
2022-08-26T18:29:18.773Z,22.48
2022-08-26T18:33:36.001Z,18.50
2022-08-26T18:37:53.311Z,18.17
2022-08-26T18:42:10.568Z,17.58
2022-08-26T18:46:28.471Z,18.20
2022-08-26T18:50:47.420Z,16.90
2022-08-26T18:55:05.376Z,22.45
2022-08-26T18:59:29.604Z,15.35
2022-08-26T19:03:48.119Z,17.75
2022-08-26T19:08:05.568Z,17.48
2022-08-26T19:12:23.048Z,17.75
2022-08-26T19:16:47.174Z,21.15
2022-08-26T19:21:04.415Z,20.33
2022-08-26T19:25:21.596Z,22.70
2022-08-26T19:29:38.807Z,19.90
2022-08-26T19:33:57.951Z,18.15
2022-08-26T19:38:15.548Z,20.63
2022-08-26T19:42:32.788Z,22.17
2022-08-26T19:46:50.011Z,18.48
2022-08-26T19:51:07.496Z,20.90
2022-08-26T19:55:26.140Z,18.20
2022-08-26T19:59:43.523Z,19.13
2022-08-26T20:04:00.928Z,21.52
2022-08-26T20:08:22.704Z,22.45
2022-08-26T20:12:41.638Z,17.38
2022-08-26T20:21:29.574Z,21.88
2022-08-26T20:25:47.434Z,22.27
2022-08-26T20:30:07.455Z,16.67
2022-08-26T20:34:26.269Z,21.45
2022-08-26T20:38:43.664Z,19.48
2022-08-26T20:43:00.989Z,20.02
2022-08-26T20:47:19.173Z,17.95
2022-08-26T20:51:37.390Z,20.77
2022-08-26T20:55:59.127Z,15.15
2022-08-26T21:00:18.138Z,20.17
2022-08-26T21:04:37.295Z,25.85
2022-08-26T21:08:54.749Z,14.50
2022-08-26T21:13:12.693Z,14.98
2022-08-26T21:17:29.990Z,15.23
2022-08-26T21:21:49.347Z,14.35
2022-08-26T21:26:10.703Z,14.00
2022-08-26T21:30:28.081Z,14.20
2022-08-26T21:34:45.295Z,14.40
2022-08-26T21:39:02.514Z,23.95
2022-08-26T21:43:34.789Z,22.85
2022-08-26T21:47:52.783Z,21.92
2022-08-26T21:52:11.054Z,28.33
2022-08-26T21:56:31.505Z,34.87
2022-08-26T22:00:50.489Z,49.40
2022-08-26T22:05:08.072Z,46.30
2022-08-26T22:09:27.679Z,37.92
2022-08-26T22:13:45.621Z,44.97
2022-08-26T22:18:06.089Z,46.50
2022-08-26T22:22:23.313Z,65.60
2022-08-26T22:26:40.540Z,59.28
2022-08-26T22:30:57.849Z,47.97
2022-08-26T22:35:28.015Z,60.95
2022-08-26T22:39:46.609Z,62.42
2022-08-26T22:44:04.467Z,124.00
2022-08-26T22:48:26.911Z,49.22
2022-08-26T22:52:44.083Z,48.88
2022-08-26T22:57:02.188Z,37.47
2022-08-26T23:01:19.462Z,38.03
2022-08-26T23:05:38.640Z,42.70
2022-08-26T23:09:55.952Z,42.33
2022-08-26T23:14:13.179Z,41.05
2022-08-26T23:18:30.525Z,57.15
2022-08-26T23:22:47.725Z,45.83
2022-08-26T23:27:05.038Z,46.20
2022-08-26T23:31:22.376Z,63.65
2022-08-26T23:35:40.446Z,82.07
2022-08-26T23:44:16.678Z,38.00
2022-08-26T23:48:33.826Z,36.60
2022-08-26T23:53:06.317Z,44.53
2022-08-26T23:57:25.143Z,41.45
